Time;durP1;ratioP1;P1;durP2;ratioP2;P2;SDS_P1;SDS_P2;PMS_P1;PMS_P2;Temp;Humidity;BMP_temperature;BMP_pressure;BME280_temperature;BME280_humidity;BME280_pressure;Samples;Min_cycle;Max_cycle;Signal;HPM_P1;HPM_P2
2023/06/06 00:00:17;;;;;;;4.20;3.00;;;11.40;99.90;10.60;100989;;;;570697;247;24087;-81
2023/06/06 00:02:45;;;;;;;6.77;3.13;;;11.50;99.90;10.70;100986;;;;568462;247;24103;-81
2023/06/06 00:05:13;;;;;;;6.47;3.13;;;11.50;99.90;10.90;100985;;;;579688;247;24048;-81
2023/06/06 00:07:44;;;;;;;3.87;3.00;;;11.70;99.90;10.90;100986;;;;570804;248;24052;-80
2023/06/06 00:10:14;;;;;;;9.17;3.43;;;11.70;99.90;10.90;100983;;;;570677;248;24045;-81
2023/06/06 00:12:41;;;;;;;6.57;3.40;;;11.70;99.90;10.90;100982;;;;570597;248;24057;-82
2023/06/06 00:15:11;;;;;;;5.63;3.40;;;11.70;99.90;10.90;100975;;;;570877;248;25103;-81
2023/06/06 00:17:38;;;;;;;5.23;3.33;;;11.70;99.90;10.80;100983;;;;570444;248;24158;-81
2023/06/06 00:20:09;;;;;;;8.10;3.07;;;11.60;99.90;10.80;100985;;;;570876;248;24057;-81
2023/06/06 00:22:32;;;;;;;5.73;3.07;;;11.60;99.90;10.70;100986;;;;569140;248;24059;-82
2023/06/06 00:25:04;;;;;;;8.57;3.17;;;11.50;99.90;10.70;100983;;;;570682;248;24061;-80
2023/06/06 00:27:29;;;;;;;6.07;3.50;;;11.50;99.90;10.70;100986;;;;570362;248;24056;-80
2023/06/06 00:29:57;;;;;;;3.80;2.47;;;11.50;99.90;10.70;100981;;;;570365;248;24195;-79
2023/06/06 00:32:25;;;;;;;4.77;3.17;;;11.50;99.90;10.70;100978;;;;570205;248;24061;-80
2023/06/06 00:34:56;;;;;;;8.23;3.23;;;11.50;99.90;10.70;100973;;;;570754;248;24050;-81
2023/06/06 00:37:24;;;;;;;3.60;2.67;;;11.50;99.90;10.70;100979;;;;570298;248;24110;-81
2023/06/06 00:39:48;;;;;;;9.73;3.30;;;11.50;99.90;10.70;100982;;;;570467;248;24051;-81
2023/06/06 00:42:19;;;;;;;4.23;3.20;;;11.50;99.90;10.60;100980;;;;570569;248;24076;-81
2023/06/06 00:44:45;;;;;;;5.17;3.43;;;11.40;99.90;10.60;100982;;;;570364;248;24055;-78
2023/06/06 00:47:13;;;;;;;11.07;3.73;;;11.40;99.90;10.50;100977;;;;570671;248;24057;-79
2023/06/06 00:49:41;;;;;;;7.17;3.17;;;11.30;99.90;10.40;100979;;;;570626;248;24027;-80
2023/06/06 00:52:09;;;;;;;7.17;3.70;;;11.20;99.90;10.40;100970;;;;568719;248;24079;-80
2023/06/06 00:54:38;;;;;;;7.80;3.67;;;11.20;99.90;10.40;100978;;;;568439;248;24048;-81
2023/06/06 00:57:10;;;;;;;10.50;4.20;;;11.20;99.90;10.40;100978;;;;571246;243;24113;-81
2023/06/06 00:59:38;;;;;;;6.77;3.93;;;11.20;99.90;10.40;100981;;;;571810;247;24156;-81
2023/06/06 01:02:04;;;;;;;7.73;3.57;;;11.10;99.90;10.30;100975;;;;579566;247;24130;-82
2023/06/06 01:04:31;;;;;;;8.50;4.20;;;11.10;99.90;10.30;100968;;;;571387;247;24065;-81
2023/06/06 01:06:58;;;;;;;6.93;4.30;;;11.10;99.90;10.20;100978;;;;571195;247;24057;-79
2023/06/06 01:09:26;;;;;;;8.20;4.43;;;11.10;99.90;10.20;100966;;;;571126;247;24087;-81
2023/06/06 01:12:12;;;;;;;9.77;5.30;;;11.00;99.90;10.20;100970;;;;566168;247;35102;-81
2023/06/06 01:14:46;;;;;;;13.40;4.93;;;11.00;99.90;10.10;100977;;;;571032;248;25385;-79
2023/06/06 01:17:18;;;;;;;11.57;6.35;;;10.90;99.90;10.10;100975;;;;565985;248;35115;-79
2023/06/06 01:19:42;;;;;;;9.47;4.87;;;10.90;99.90;10.00;100972;;;;570397;248;24092;-82
2023/06/06 01:22:12;;;;;;;10.37;3.63;;;10.80;99.90;9.90;100977;;;;570920;248;24052;-81
2023/06/06 01:24:37;;;;;;;7.40;4.10;;;10.80;99.90;9.90;100973;;;;570687;248;24072;-80
2023/06/06 01:27:05;;;;;;;11.97;5.33;;;10.70;99.90;9.90;100972;;;;565916;248;35101;-82
2023/06/06 01:29:33;;;;;;;12.13;4.70;;;10.70;99.90;9.80;100974;;;;568498;248;24044;-81
2023/06/06 01:32:36;;;;;;;11.87;4.67;;;10.60;99.90;9.90;100980;;;;570664;248;24063;-80
2023/06/06 01:35:15;;;;;;;6.30;3.43;;;10.60;99.90;9.90;100971;;;;570574;248;24052;-82
2023/06/06 01:38:10;;;;;;;7.87;4.93;;;10.70;99.90;9.80;100959;;;;570671;248;24055;-81
2023/06/06 01:40:42;;;;;;;9.30;5.23;;;10.60;99.90;9.80;100966;;;;569416;248;24138;-81
2023/06/06 01:43:08;;;;;;;7.77;3.80;;;10.60;99.90;9.80;100965;;;;578989;248;24103;-82
2023/06/06 01:45:39;;;;;;;8.37;4.50;;;10.60;99.90;9.70;100965;;;;570345;248;24062;-81
2023/06/06 01:48:04;;;;;;;6.53;4.53;;;10.50;99.90;9.60;100967;;;;567835;248;24085;-82
2023/06/06 01:50:31;;;;;;;8.13;3.93;;;10.50;99.90;9.50;100961;;;;570373;248;24039;-82
2023/06/06 01:53:00;;;;;;;10.97;4.23;;;10.30;99.90;9.50;100957;;;;570250;248;24128;-80
2023/06/06 01:55:28;;;;;;;9.57;4.43;;;10.30;99.90;9.50;100959;;;;570400;248;24078;-80
2023/06/06 01:57:56;;;;;;;6.03;4.30;;;10.30;99.90;9.50;100959;;;;570279;248;24066;-78
2023/06/06 02:00:23;;;;;;;9.30;4.87;;;10.20;99.90;9.50;100955;;;;570143;248;24094;-80
2023/06/06 02:02:51;;;;;;;7.47;3.53;;;10.30;99.90;9.50;100955;;;;570607;248;24058;-81
2023/06/06 02:05:20;;;;;;;8.37;4.20;;;10.30;99.90;9.50;100962;;;;570255;248;24064;-82
2023/06/06 02:07:49;;;;;;;5.93;3.70;;;10.20;99.90;9.50;100957;;;;570366;248;24099;-82
2023/06/06 02:10:19;;;;;;;6.90;3.77;;;10.20;99.90;9.50;100954;;;;580408;247;24061;-80
2023/06/06 02:12:48;;;;;;;8.50;3.60;;;10.20;99.90;9.50;100948;;;;579631;246;24060;-82
2023/06/06 02:15:13;;;;;;;6.23;3.77;;;10.20;99.90;9.50;100946;;;;570892;247;24063;-81
2023/06/06 02:17:40;;;;;;;11.20;3.83;;;10.30;99.90;9.50;100946;;;;570873;247;24056;-81
2023/06/06 02:20:09;;;;;;;8.23;3.60;;;10.20;99.90;9.50;100941;;;;570828;247;24111;-81
2023/06/06 02:22:37;;;;;;;8.30;3.80;;;10.30;99.90;9.50;100939;;;;573504;247;24055;-81
2023/06/06 02:25:08;;;;;;;7.30;3.80;;;10.20;99.90;9.50;100936;;;;570902;247;24049;-81
2023/06/06 02:27:38;;;;;;;7.97;3.40;;;10.30;99.90;9.50;100941;;;;570446;248;24105;-79
2023/06/06 02:30:07;;;;;;;8.70;4.73;;;10.30;99.90;9.60;100944;;;;570208;248;24116;-79
2023/06/06 02:32:32;;;;;;;5.73;4.00;;;10.30;99.90;9.60;100939;;;;570597;248;24051;-81
2023/06/06 02:35:02;;;;;;;6.33;3.67;;;10.30;99.90;9.60;100941;;;;570948;248;24088;-81
2023/06/06 02:37:33;;;;;;;7.07;3.90;;;10.30;99.90;9.60;100938;;;;568762;248;24066;-80
2023/06/06 02:39:59;;;;;;;8.70;3.30;;;10.40;99.90;9.60;100935;;;;570739;248;24103;-82
2023/06/06 02:42:26;;;;;;;6.93;3.23;;;10.40;99.90;9.60;100940;;;;570903;248;24103;-82
2023/06/06 02:44:54;;;;;;;5.90;4.10;;;10.40;99.90;9.70;100941;;;;570838;248;24091;-82
2023/06/06 02:47:22;;;;;;;7.27;4.37;;;10.40;99.90;9.70;100931;;;;570622;248;24063;-81
2023/06/06 02:49:51;;;;;;;12.17;5.23;;;10.50;99.90;9.80;100938;;;;570691;248;24068;-81
2023/06/06 02:52:35;;;;;;;17.27;7.17;;;10.60;99.90;9.80;100932;;;;570595;248;24108;-81
2023/06/06 02:55:01;;;;;;;5.13;3.60;;;10.60;99.90;9.90;100932;;;;569011;248;24106;-82
2023/06/06 02:57:26;;;;;;;5.43;4.03;;;10.60;99.90;10.00;100934;;;;565499;248;35104;-81
2023/06/06 02:59:55;;;;;;;4.93;3.60;;;10.70;99.90;10.00;100930;;;;570684;248;24076;-81
2023/06/06 03:02:22;;;;;;;6.17;3.93;;;10.70;99.90;10.10;100933;;;;570662;248;24083;-82
2023/06/06 03:04:50;;;;;;;5.03;3.83;;;10.80;99.90;10.10;100929;;;;570627;248;24048;-80
2023/06/06 03:07:18;;;;;;;4.10;3.47;;;10.90;99.90;10.30;100927;;;;570381;248;24066;-82
2023/06/06 03:09:50;;;;;;;5.07;3.50;;;11.00;99.90;10.30;100931;;;;570195;248;24074;-81
2023/06/06 03:12:15;;;;;;;4.03;3.53;;;11.10;99.90;10.40;100933;;;;570047;248;24088;-82
2023/06/06 03:14:43;;;;;;;4.77;3.93;;;11.30;99.90;10.60;100942;;;;570244;248;24052;-81
2023/06/06 03:17:11;;;;;;;6.67;3.37;;;11.20;99.90;11.00;100935;;;;570430;248;24110;-80
2023/06/06 03:19:40;;;;;;;7.40;3.63;;;11.60;99.90;11.70;100941;;;;570560;245;24122;-81
2023/06/06 03:22:07;;;;;;;5.67;3.30;;;12.20;99.90;12.50;100939;;;;571561;247;24035;-80
2023/06/06 03:24:35;;;;;;;3.53;3.03;;;13.00;99.90;13.30;100936;;;;571301;247;24078;-82
2023/06/06 03:27:05;;;;;;;5.27;3.70;;;13.80;99.90;14.00;100943;;;;570957;247;24062;-82
2023/06/06 03:29:31;;;;;;;6.77;3.70;;;14.60;99.90;14.70;100945;;;;570995;247;24080;-81
2023/06/06 03:31:59;;;;;;;6.30;3.73;;;15.30;99.90;15.40;100938;;;;570853;247;24064;-81
2023/06/06 03:34:31;;;;;;;5.50;3.43;;;16.60;99.90;16.00;100940;;;;570805;247;24043;-83
2023/06/06 03:36:55;;;;;;;7.77;3.67;;;16.60;99.90;16.70;100948;;;;579718;247;24083;-82
2023/06/06 03:39:23;;;;;;;5.10;3.27;;;17.30;99.90;17.30;100950;;;;570958;248;24051;-79
2023/06/06 03:41:55;;;;;;;6.53;3.90;;;18.00;99.90;18.00;100947;;;;570948;248;24074;-82
2023/06/06 03:44:19;;;;;;;7.40;3.93;;;18.70;99.90;18.60;100950;;;;570688;248;23081;-82
2023/06/06 03:46:47;;;;;;;8.50;3.40;;;19.30;99.90;19.20;100950;;;;570820;248;24092;-82
2023/06/06 03:49:15;;;;;;;8.63;3.83;;;19.90;99.90;19.80;100951;;;;570872;248;24048;-79
2023/06/06 03:51:46;;;;;;;3.80;3.00;;;20.60;99.90;20.40;100950;;;;570892;248;24029;-81
2023/06/06 03:54:11;;;;;;;5.77;3.73;;;21.20;99.90;20.90;100948;;;;570743;248;24069;-81
2023/06/06 03:56:42;;;;;;;7.83;4.20;;;22.10;99.90;21.30;100945;;;;570822;248;24035;-83
2023/06/06 03:59:11;;;;;;;7.50;3.47;;;22.40;99.90;21.60;100948;;;;570373;248;24063;-79
2023/06/06 04:01:36;;;;;;;6.70;3.97;;;22.40;99.90;21.90;100946;;;;570093;248;24174;-82
2023/06/06 04:04:04;;;;;;;4.57;3.97;;;22.70;99.90;22.20;100949;;;;570422;248;23087;-84
2023/06/06 04:06:32;;;;;;;10.50;3.97;;;23.00;99.70;22.70;100951;;;;570686;248;23061;-82
2023/06/06 04:09:00;;;;;;;11.80;4.10;;;23.50;98.30;23.10;100945;;;;570267;248;23168;-81
2023/06/06 04:11:28;;;;;;;6.60;3.97;;;23.90;96.60;23.50;100948;;;;570335;248;24047;-82
2023/06/06 04:13:55;;;;;;;8.70;4.37;;;24.30;95.30;23.90;100956;;;;570318;248;23079;-80
2023/06/06 04:16:23;;;;;;;5.73;3.80;;;24.70;93.70;24.40;100947;;;;570383;248;24037;-83
2023/06/06 04:18:52;;;;;;;7.13;3.90;;;25.10;92.20;24.90;100954;;;;570377;248;23172;-81
2023/06/06 04:21:19;;;;;;;7.63;4.27;;;25.70;90.40;25.40;100950;;;;570184;248;23161;-81
2023/06/06 04:23:47;;;;;;;7.80;4.30;;;26.20;87.10;25.90;100949;;;;568560;248;24066;-81
2023/06/06 04:26:27;;;;;;;17.77;5.07;;;26.70;83.80;26.60;100948;;;;570208;248;23141;-80
2023/06/06 04:28:58;;;;;;;16.83;4.70;;;28.20;75.50;27.30;100953;;;;570372;248;23057;-80
2023/06/06 04:31:28;;;;;;;11.68;3.60;;;28.90;72.50;27.90;100961;;;;570471;246;23082;-79
2023/06/06 04:33:54;;;;;;;13.07;3.20;;;28.80;72.30;28.60;100959;;;;571659;247;23065;-81
2023/06/06 04:36:22;;;;;;;3.12;2.85;;;29.60;68.20;29.20;100955;;;;571445;247;24064;-79
2023/06/06 04:38:53;;;;;;;3.50;3.05;;;30.20;64.80;29.90;100962;;;;571012;247;23082;-82
2023/06/06 04:41:20;;;;;;;11.07;3.10;;;30.90;62.10;30.60;100962;;;;570673;247;23072;-82
2023/06/06 04:43:49;;;;;;;6.15;3.12;;;31.60;59.00;31.10;100961;;;;570718;247;23096;-82
2023/06/06 04:46:21;;;;;;;6.68;3.10;;;32.30;57.10;31.70;100971;;;;570718;247;24088;-82
2023/06/06 04:48:41;;;;;;;8.15;3.20;;;32.90;55.00;32.40;100969;;;;579539;247;23105;-82
2023/06/06 04:51:09;;;;;;;8.68;3.10;;;33.50;54.00;33.00;100964;;;;579901;247;23118;-83
2023/06/06 04:53:42;;;;;;;6.62;3.58;;;34.70;51.10;33.40;100972;;;;579818;247;24073;-82
2023/06/06 04:56:07;;;;;;;15.65;4.00;;;34.60;50.90;33.90;100962;;;;579471;248;24158;-82
2023/06/06 04:58:34;;;;;;;17.70;4.68;;;35.20;50.00;34.50;100969;;;;579849;244;23096;-82
2023/06/06 05:01:02;;;;;;;14.25;4.25;;;35.70;49.00;34.90;100966;;;;579634;247;23094;-84
2023/06/06 05:03:29;;;;;;;12.73;3.60;;;36.20;47.80;35.40;100966;;;;579855;247;23093;-83
2023/06/06 05:05:58;;;;;;;9.05;3.47;;;37.10;45.90;35.90;100970;;;;579831;247;23066;-82
2023/06/06 05:08:31;;;;;;;7.03;3.55;;;37.00;45.80;36.40;100967;;;;579973;247;23117;-80
2023/06/06 05:10:54;;;;;;;3.97;3.22;;;37.60;45.00;37.00;100972;;;;579189;248;23073;-83
2023/06/06 05:13:23;;;;;;;10.73;3.45;;;38.50;42.70;37.30;100970;;;;579463;247;23101;-83
2023/06/06 05:15:50;;;;;;;13.77;3.45;;;38.50;42.70;37.80;100972;;;;579573;247;23071;-83
2023/06/06 05:18:20;;;;;;;8.52;2.53;;;38.90;42.10;38.20;100974;;;;579501;247;23093;-83
2023/06/06 05:20:47;;;;;;;8.13;2.55;;;39.80;40.40;38.70;100974;;;;580047;247;23074;-84
2023/06/06 05:23:15;;;;;;;6.35;2.45;;;39.80;40.30;39.30;100969;;;;579653;247;23084;-84
2023/06/06 05:25:43;;;;;;;10.43;3.15;;;40.20;39.50;39.40;100969;;;;579574;247;24091;-83
2023/06/06 05:28:11;;;;;;;17.25;3.15;;;40.50;39.20;39.80;100970;;;;579646;247;23074;-82
2023/06/06 05:30:38;;;;;;;8.30;3.00;;;40.90;39.00;40.50;100966;;;;579526;247;24104;-81
2023/06/06 05:33:08;;;;;;;21.65;3.37;;;41.30;37.90;40.90;100970;;;;579386;247;23136;-83
2023/06/06 05:35:37;;;;;;;18.40;3.50;;;41.70;37.50;41.10;100972;;;;579436;247;24113;-83
2023/06/06 05:38:02;;;;;;;18.27;3.72;;;42.00;37.20;41.60;100974;;;;579624;247;23082;-82
2023/06/06 05:40:30;;;;;;;14.43;3.12;;;42.40;36.90;42.00;100984;;;;579561;247;23074;-83
2023/06/06 05:42:59;;;;;;;8.30;2.60;;;43.00;36.00;42.20;100983;;;;579786;246;23068;-82
2023/06/06 05:45:27;;;;;;;10.73;2.70;;;43.10;36.10;42.60;100985;;;;580945;246;23082;-80
2023/06/06 05:47:58;;;;;;;26.05;3.45;;;43.60;35.20;42.90;100981;;;;580335;247;23065;-82
2023/06/06 05:50:23;;;;;;;39.08;6.15;;;43.60;35.20;43.40;100981;;;;580087;247;23093;-81
2023/06/06 05:52:51;;;;;;;16.58;3.12;;;44.00;34.90;43.80;100983;;;;580202;247;23237;-83
2023/06/06 05:55:31;;;;;;;4.95;2.70;;;44.90;33.50;44.30;100988;;;;579957;247;23090;-83
2023/06/06 05:57:59;;;;;;;13.07;3.12;;;44.90;33.50;44.50;100987;;;;579825;243;24131;-82
2023/06/06 06:00:30;;;;;;;12.45;2.60;;;45.10;33.20;44.70;100984;;;;579896;247;23066;-84
2023/06/06 06:02:58;;;;;;;14.65;3.30;;;45.30;32.40;44.60;100988;;;;579493;248;23075;-85
2023/06/06 06:05:28;;;;;;;6.00;2.92;;;45.20;32.30;44.10;100986;;;;579686;247;23067;-83
2023/06/06 06:07:52;;;;;;;5.53;2.42;;;45.00;32.10;43.70;100985;;;;579842;248;23088;-82
2023/06/06 06:10:21;;;;;;;6.60;2.17;;;44.30;32.80;43.60;100993;;;;580153;247;23097;-82
2023/06/06 06:12:49;;;;;;;5.25;2.37;;;44.30;32.70;43.80;100993;;;;580156;247;23072;-83
2023/06/06 06:15:17;;;;;;;5.62;2.35;;;44.40;32.90;44.00;100995;;;;580195;247;23108;-83
2023/06/06 06:17:45;;;;;;;4.65;2.15;;;44.70;33.00;44.30;101000;;;;579745;247;23082;-84
2023/06/06 06:20:13;;;;;;;4.60;2.37;;;44.70;32.90;44.70;100995;;;;579615;247;23110;-81
2023/06/06 06:22:41;;;;;;;6.68;2.70;;;45.10;32.90;45.20;100999;;;;579273;248;23079;-81
2023/06/06 06:25:13;;;;;;;8.85;2.90;;;45.50;32.50;45.70;100995;;;;579588;247;24115;-81
2023/06/06 06:27:37;;;;;;;9.52;3.10;;;46.50;32.40;46.20;101002;;;;574022;248;35166;-79
2023/06/06 06:30:06;;;;;;;4.78;2.50;;;46.40;32.30;46.70;101001;;;;579918;247;23114;-81
2023/06/06 06:32:33;;;;;;;7.82;2.90;;;46.80;31.70;46.70;100999;;;;579604;247;23088;-80
2023/06/06 06:35:04;;;;;;;14.30;2.72;;;47.10;32.10;47.20;101001;;;;579544;247;23067;-86
2023/06/06 06:37:33;;;;;;;5.75;2.83;;;47.50;31.40;47.30;101003;;;;579578;248;23070;-87
2023/06/06 06:40:01;;;;;;;10.55;2.95;;;47.80;31.40;47.50;101003;;;;580336;247;23075;-89
2023/06/06 06:42:29;;;;;;;6.37;2.85;;;47.80;31.30;47.80;101002;;;;580874;247;23082;-88
2023/06/06 06:44:57;;;;;;;4.53;2.60;;;48.20;31.30;48.20;101002;;;;580464;247;23074;-88
2023/06/06 06:47:25;;;;;;;5.85;2.55;;;48.50;31.30;48.70;101006;;;;580159;247;23134;-85
2023/06/06 06:49:52;;;;;;;7.12;3.25;;;48.90;31.10;49.00;101007;;;;580164;248;23090;-87
2023/06/06 06:52:20;;;;;;;5.55;2.80;;;49.20;30.90;49.10;101008;;;;580112;247;23078;-86
2023/06/06 06:54:57;;;;;;;9.55;3.40;;;49.40;31.50;49.00;101005;;;;580701;244;23095;-86
2023/06/06 06:57:22;;;;;;;11.00;2.70;;;49.30;30.50;49.00;101011;;;;584076;242;23067;-87
2023/06/06 06:59:47;;;;;;;11.18;3.00;;;49.30;30.50;49.40;101009;;;;564720;250;23145;-86
2023/06/06 07:02:18;;;;;;;15.85;3.03;;;49.60;30.50;49.90;101007;;;;588784;242;23103;-87
2023/06/06 07:04:45;;;;;;;18.42;2.87;;;50.00;30.30;50.20;101012;;;;592456;239;23082;-86
2023/06/06 07:07:10;;;;;;;14.90;3.22;;;50.30;30.10;50.50;101008;;;;592566;242;23083;-86
2023/06/06 07:09:39;;;;;;;22.10;3.00;;;50.70;29.90;50.60;101012;;;;592109;243;23082;-86
2023/06/06 07:12:07;;;;;;;19.00;3.42;;;50.80;29.40;50.60;101011;;;;590995;243;24142;-85
2023/06/06 07:14:35;;;;;;;6.87;2.80;;;51.00;30.00;50.70;101010;;;;585161;243;23106;-87
2023/06/06 07:17:07;;;;;;;11.12;3.05;;;51.00;29.60;50.70;101009;;;;585134;243;23078;-85
2023/06/06 07:19:31;;;;;;;8.48;3.17;;;51.00;29.50;51.00;101011;;;;585031;246;23081;-87
2023/06/06 07:22:00;;;;;;;12.55;3.30;;;51.40;29.00;51.10;101017;;;;585121;243;23101;-86
2023/06/06 07:24:27;;;;;;;6.82;3.10;;;51.30;28.90;50.80;101017;;;;584134;243;23141;-85
2023/06/06 07:26:56;;;;;;;6.57;2.90;;;51.20;28.70;50.50;101017;;;;584716;243;23103;-85
2023/06/06 07:29:26;;;;;;;8.32;3.10;;;50.70;28.80;50.20;101021;;;;584803;243;23075;-79
2023/06/06 07:31:52;;;;;;;4.22;2.67;;;50.60;28.70;49.90;101016;;;;584171;244;23138;-80
2023/06/06 07:34:20;;;;;;;10.68;2.85;;;50.40;28.90;49.70;101024;;;;584233;243;23080;-80
2023/06/06 07:36:47;;;;;;;7.62;2.40;;;50.10;28.60;49.30;101025;;;;584411;244;23076;-81
2023/06/06 07:39:15;;;;;;;11.85;2.87;;;49.80;28.30;48.70;101017;;;;584289;243;23110;-81
2023/06/06 07:41:43;;;;;;;4.37;2.30;;;49.30;28.70;48.70;101015;;;;584817;243;23100;-87
2023/06/06 07:44:11;;;;;;;8.10;3.03;;;49.20;29.00;49.00;101016;;;;584611;246;24221;-83
2023/06/06 07:46:39;;;;;;;12.80;2.85;;;49.30;28.90;48.90;101018;;;;579108;243;35138;-85
2023/06/06 07:49:07;;;;;;;7.55;2.65;;;49.30;29.00;49.30;101007;;;;584374;246;24109;-84
2023/06/06 07:51:39;;;;;;;6.32;2.15;;;49.60;29.30;50.20;101011;;;;584170;243;23104;-85
2023/06/06 07:54:09;;;;;;;6.62;2.65;;;50.30;29.20;50.90;101011;;;;583971;246;23069;-88
2023/06/06 07:56:37;;;;;;;6.93;2.80;;;50.90;28.70;50.80;101011;;;;584208;246;23075;-87
2023/06/06 07:59:02;;;;;;;9.07;2.35;;;51.30;28.30;51.20;101019;;;;584180;240;23099;-85
2023/06/06 08:01:31;;;;;;;16.05;3.00;;;51.30;28.30;50.70;101004;;;;574584;250;23057;-86
2023/06/06 08:03:59;;;;;;;10.05;3.05;;;51.20;27.80;49.90;101005;;;;574471;250;23048;-85
2023/06/06 08:06:32;;;;;;;11.80;2.62;;;50.70;28.20;50.30;101012;;;;574844;248;23061;-85
2023/06/06 08:08:54;;;;;;;5.87;2.42;;;50.70;28.10;50.30;101010;;;;575428;245;23090;-87
2023/06/06 08:11:22;;;;;;;4.30;2.37;;;50.70;28.10;50.70;101019;;;;564869;252;23146;-86
2023/06/06 08:13:50;;;;;;;7.62;2.45;;;51.00;28.10;50.80;101002;;;;575843;250;23045;-86
2023/06/06 08:16:21;;;;;;;6.12;2.30;;;51.10;28.10;51.20;101006;;;;575755;250;23044;-86
2023/06/06 08:18:46;;;;;;;7.45;2.62;;;51.50;27.80;51.60;101004;;;;575305;250;23028;-85
2023/06/06 08:21:16;;;;;;;7.93;2.50;;;51.90;28.00;51.80;101002;;;;575731;250;23053;-84
2023/06/06 08:23:42;;;;;;;17.67;4.18;;;52.20;27.00;50.70;101005;;;;575450;250;23028;-88
2023/06/06 08:26:10;;;;;;;17.83;4.10;;;51.50;27.30;49.30;101007;;;;569282;252;23151;-86
2023/06/06 08:28:37;;;;;;;11.00;2.80;;;50.50;27.40;49.20;101001;;;;569770;252;23146;-86
2023/06/06 08:31:05;;;;;;;11.45;2.67;;;50.10;27.80;49.50;100998;;;;569577;252;23190;-87
2023/06/06 08:33:33;;;;;;;14.93;2.90;;;50.00;28.30;50.10;100996;;;;569404;252;23150;-85
2023/06/06 08:36:01;;;;;;;32.45;6.95;;;50.50;27.90;50.70;100994;;;;569395;252;23169;-86
2023/06/06 08:38:29;;;;;;;6.85;2.70;;;51.00;27.20;50.40;100995;;;;569063;252;23177;-87
2023/06/06 08:40:58;;;;;;;8.98;2.70;;;50.40;27.10;49.30;100993;;;;569218;252;23131;-86
2023/06/06 08:43:25;;;;;;;8.55;2.75;;;50.40;27.60;48.80;100999;;;;569340;249;23171;-86
2023/06/06 08:45:57;;;;;;;8.50;2.33;;;49.70;27.30;48.70;100987;;;;568724;252;23124;-85
2023/06/06 08:48:22;;;;;;;27.13;3.40;;;49.50;27.40;48.90;100989;;;;568723;250;23129;-87
2023/06/06 08:50:53;;;;;;;7.62;2.47;;;49.50;27.30;49.30;100985;;;;568736;252;23159;-87
2023/06/06 08:53:21;;;;;;;8.77;2.62;;;50.00;27.30;49.30;101003;;;;564414;249;23126;-88
2023/06/06 08:55:50;;;;;;;5.03;2.40;;;49.50;27.20;48.50;100992;;;;574457;250;23063;-87
2023/06/06 08:58:17;;;;;;;3.22;2.28;;;49.50;27.20;48.50;100993;;;;574281;247;23041;-86
2023/06/06 09:00:42;;;;;;;2.35;2.15;;;49.30;28.00;49.20;100985;;;;564319;252;23138;-85
2023/06/06 09:03:14;;;;;;;3.15;2.15;;;49.90;27.20;48.50;100984;;;;564467;254;23139;-86
2023/06/06 09:05:41;;;;;;;3.55;2.00;;;49.70;27.10;48.00;100984;;;;564115;254;23067;-85
2023/06/06 09:08:12;;;;;;;4.40;2.33;;;49.30;27.30;48.00;100985;;;;574497;250;23067;-87
2023/06/06 09:10:37;;;;;;;5.82;2.33;;;49.20;27.60;48.80;100985;;;;563834;255;23083;-87
2023/06/06 09:13:08;;;;;;;5.05;2.12;;;49.70;27.30;48.60;100982;;;;569173;252;23131;-88
2023/06/06 09:15:32;;;;;;;4.22;2.58;;;49.80;27.20;48.20;100980;;;;569227;252;23116;-87
2023/06/06 09:18:00;;;;;;;3.72;2.50;;;49.50;27.40;48.40;100981;;;;569992;250;23133;-84
2023/06/06 09:20:29;;;;;;;7.22;2.60;;;49.60;27.20;48.70;100976;;;;570719;251;23160;-87
2023/06/06 09:23:00;;;;;;;2.33;2.12;;;49.80;27.00;48.70;100975;;;;565713;254;23130;-88
2023/06/06 09:25:28;;;;;;;4.65;2.12;;;49.90;27.20;49.20;100985;;;;575902;250;23091;-88
2023/06/06 09:28:01;;;;;;;4.45;2.42;;;50.30;27.00;49.30;100973;;;;569854;252;23159;-86
2023/06/06 09:30:40;;;;;;;6.37;2.87;;;50.50;26.80;48.50;100980;;;;564070;250;23131;-88
2023/06/06 09:33:04;;;;;;;2.78;2.42;;;50.10;27.10;47.90;100971;;;;574983;249;23055;-88
2023/06/06 09:35:37;;;;;;;8.93;2.70;;;49.50;27.30;47.70;100978;;;;574824;246;23020;-86
2023/06/06 09:38:07;;;;;;;4.72;2.70;;;49.30;27.90;48.00;100977;;;;569080;252;23178;-84
2023/06/06 09:40:48;;;;;;;14.10;2.90;;;49.40;27.70;48.60;100976;;;;569455;252;23147;-86
2023/06/06 09:43:15;;;;;;;8.27;2.30;;;49.80;27.00;48.90;100975;;;;564828;250;23121;-87
2023/06/06 09:45:50;;;;;;;2.87;2.40;;;50.20;26.60;47.80;100975;;;;574996;247;24093;-85
2023/06/06 09:48:26;;;;;;;15.90;3.65;;;48.80;27.20;47.40;100971;;;;574909;246;23075;-86
2023/06/06 09:50:51;;;;;;;6.07;2.85;;;48.70;27.10;48.50;100968;;;;575045;247;23083;-88
2023/06/06 09:53:25;;;;;;;7.65;3.25;;;50.40;27.10;49.60;100970;;;;572398;246;23029;-88
2023/06/06 09:56:01;;;;;;;22.45;3.47;;;50.30;27.10;50.10;100968;;;;575386;250;23131;-87
2023/06/06 09:58:24;;;;;;;11.60;3.40;;;51.10;26.40;50.10;100973;;;;583753;246;24192;-87
2023/06/06 10:00:52;;;;;;;10.10;2.60;;;51.40;26.60;51.00;100963;;;;584392;242;23113;-88
2023/06/06 10:03:21;;;;;;;8.93;2.97;;;52.20;26.70;50.80;100961;;;;586044;245;23157;-87
2023/06/06 10:05:50;;;;;;;8.52;2.78;;;52.40;26.00;49.90;100961;;;;575114;247;23155;-88
2023/06/06 10:08:18;;;;;;;36.08;5.53;;;51.90;26.10;48.40;100970;;;;584677;246;23115;-87
2023/06/06 10:10:48;;;;;;;9.10;3.00;;;49.50;27.70;47.60;100970;;;;586292;245;23149;-84
2023/06/06 10:13:15;;;;;;;10.13;2.75;;;49.50;27.10;46.30;100959;;;;564814;251;23174;-87
2023/06/06 10:15:43;;;;;;;7.50;2.70;;;48.20;27.10;44.50;100963;;;;584519;242;24188;-86
2023/06/06 10:18:14;;;;;;;4.43;2.60;;;46.60;27.40;43.40;100962;;;;584967;246;23118;-87
2023/06/06 10:20:41;;;;;;;14.35;2.80;;;45.10;28.40;42.90;100958;;;;585004;244;23120;-88
2023/06/06 10:23:10;;;;;;;8.40;3.05;;;44.40;28.60;42.20;100959;;;;585192;245;23168;-87
2023/06/06 10:25:38;;;;;;;9.13;2.40;;;43.50;28.70;40.90;100964;;;;586414;242;23094;-87
2023/06/06 10:28:27;;;;;;;7.35;2.58;;;42.30;29.40;40.90;100960;;;;564123;255;23168;-88
2023/06/06 10:30:59;;;;;;;12.63;2.85;;;41.80;30.40;41.60;100961;;;;585353;244;23102;-85
2023/06/06 10:33:41;;;;;;;6.65;2.33;;;42.20;30.70;41.90;100951;;;;587161;242;23153;-88
2023/06/06 10:36:03;;;;;;;19.25;3.78;;;42.60;30.40;41.20;100958;;;;564037;254;23168;-85
2023/06/06 10:38:37;;;;;;;26.62;3.85;;;42.10;30.00;40.00;100949;;;;584921;245;23099;-86
2023/06/06 10:41:02;;;;;;;17.33;2.95;;;41.10;30.40;38.70;100954;;;;564231;254;23160;-86
2023/06/06 10:43:36;;;;;;;13.15;3.05;;;40.00;30.80;37.80;100953;;;;584618;246;23149;-87
2023/06/06 10:46:03;;;;;;;7.80;2.90;;;39.00;31.30;36.80;100944;;;;581820;245;35328;-86
2023/06/06 10:48:43;;;;;;;8.35;2.22;;;37.90;31.70;35.40;100944;;;;564417;254;23185;-86
2023/06/06 10:51:36;;;;;;;2.35;2.15;;;36.70;32.50;34.50;100938;;;;584256;246;23107;-86
2023/06/06 10:54:18;;;;;;;2.40;2.20;;;35.60;33.60;33.70;100933;;;;585892;245;23120;-84
2023/06/06 10:56:51;;;;;;;4.30;2.10;;;34.70;34.90;33.30;100925;;;;563339;254;23175;-84
2023/06/06 10:59:32;;;;;;;37.05;4.78;;;34.00;36.00;32.80;100932;;;;577822;244;23170;-85
2023/06/06 11:02:00;;;;;;;19.00;3.80;;;33.40;36.70;32.30;100927;;;;577534;248;23199;-85
2023/06/06 11:04:30;;;;;;;33.95;3.97;;;32.80;37.30;31.80;100916;;;;577582;248;23118;-85
2023/06/06 11:06:55;;;;;;;7.32;2.08;;;32.20;37.80;31.50;100915;;;;577438;248;24093;-85
2023/06/06 11:09:22;;;;;;;11.85;2.33;;;31.80;38.20;31.00;100917;;;;583783;243;23119;-84
2023/06/06 11:11:51;;;;;;;4.68;2.03;;;31.50;38.60;30.50;100925;;;;564251;251;23168;-84
2023/06/06 11:14:24;;;;;;;6.22;2.08;;;31.10;39.20;29.90;100915;;;;577574;243;35265;-84